Time;durP1;ratioP1;P1;durP2;ratioP2;P2;SDS_P1;SDS_P2;PMS_P1;PMS_P2;Temp;Humidity;BMP_temperature;BMP_pressure;BME280_temperature;BME280_humidity;BME280_pressure;Samples;Min_cycle;Max_cycle;Signal;HPM_P1;HPM_P2
2023/12/19 00:01:48;;;;;;;37.85;17.65;;;;;;;;;;4969159;28;20046;-67
2023/12/19 00:04:15;;;;;;;36.30;17.45;;;;;;;;;;4980505;28;20080;-67
2023/12/19 00:06:41;;;;;;;40.13;17.92;;;;;;;;;;4982852;28;20661;-67
2023/12/19 00:09:07;;;;;;;36.40;17.70;;;;;;;;;;4984351;28;20034;-67
2023/12/19 00:11:34;;;;;;;46.53;17.30;;;;;;;;;;4989316;28;20034;-67
2023/12/19 00:14:00;;;;;;;40.55;17.48;;;;;;;;;;4981826;28;20030;-67
2023/12/19 00:16:26;;;;;;;41.17;17.40;;;;;;;;;;4979557;28;20757;-66
2023/12/19 00:18:52;;;;;;;37.13;18.00;;;;;;;;;;4978508;28;20041;-67
2023/12/19 00:21:19;;;;;;;39.38;16.90;;;;;;;;;;4984392;28;20045;-66
2023/12/19 00:23:45;;;;;;;38.80;17.27;;;;;;;;;;4980589;28;20034;-67
2023/12/19 00:26:15;;;;;;;36.20;17.40;;;;;;;;;;4981147;28;20026;-67
2023/12/19 00:28:43;;;;;;;41.33;17.83;;;;;;;;;;4979535;28;20049;-67
2023/12/19 00:31:09;;;;;;;37.20;17.30;;;;;;;;;;4979475;28;20034;-66
2023/12/19 00:33:35;;;;;;;32.38;17.30;;;;;;;;;;4979394;28;20079;-67
2023/12/19 00:36:01;;;;;;;40.00;17.05;;;;;;;;;;4982449;28;20041;-66
2023/12/19 00:38:27;;;;;;;38.63;17.25;;;;;;;;;;4979021;28;20050;-67
2023/12/19 00:40:53;;;;;;;30.23;15.80;;;;;;;;;;4977728;28;20041;-67
2023/12/19 00:43:19;;;;;;;34.83;15.55;;;;;;;;;;4978020;28;20399;-66
2023/12/19 00:45:46;;;;;;;34.90;17.67;;;;;;;;;;4982420;28;20073;-67
2023/12/19 00:48:13;;;;;;;32.08;17.02;;;;;;;;;;4976449;28;20042;-67
2023/12/19 00:50:39;;;;;;;32.35;16.92;;;;;;;;;;4981952;28;20049;-67
2023/12/19 00:53:05;;;;;;;33.17;17.05;;;;;;;;;;4979083;28;21283;-67
2023/12/19 00:55:31;;;;;;;29.52;16.13;;;;;;;;;;4979526;28;20129;-66
2023/12/19 00:57:56;;;;;;;31.40;15.98;;;;;;;;;;4986544;28;20038;-66
2023/12/19 01:00:23;;;;;;;33.28;16.05;;;;;;;;;;4960319;28;20045;-66
2023/12/19 01:02:49;;;;;;;34.30;17.00;;;;;;;;;;4961826;28;20049;-67
2023/12/19 01:05:14;;;;;;;31.27;16.45;;;;;;;;;;4970377;28;20031;-66
2023/12/19 01:07:40;;;;;;;31.83;16.70;;;;;;;;;;4980549;28;20134;-66
2023/12/19 01:10:07;;;;;;;33.75;17.50;;;;;;;;;;4972231;28;20808;-66
2023/12/19 01:12:33;;;;;;;33.20;17.75;;;;;;;;;;4988113;28;20061;-66
2023/12/19 01:14:59;;;;;;;33.80;17.50;;;;;;;;;;4989094;28;20194;-67
2023/12/19 01:17:25;;;;;;;31.95;17.50;;;;;;;;;;4996971;28;20485;-67
2023/12/19 01:19:51;;;;;;;35.72;17.88;;;;;;;;;;4979968;28;20453;-67
2023/12/19 01:22:17;;;;;;;32.78;17.15;;;;;;;;;;4983168;28;20062;-67
2023/12/19 01:24:43;;;;;;;32.75;17.02;;;;;;;;;;4980972;28;20105;-66
2023/12/19 01:27:09;;;;;;;37.17;18.52;;;;;;;;;;4988430;28;20035;-66
2023/12/19 01:29:35;;;;;;;34.47;18.08;;;;;;;;;;4985838;28;20038;-66
2023/12/19 01:32:01;;;;;;;35.22;18.50;;;;;;;;;;4985019;28;20050;-67
2023/12/19 01:34:27;;;;;;;34.78;17.67;;;;;;;;;;4985853;28;20189;-66
2023/12/19 01:36:54;;;;;;;31.10;16.65;;;;;;;;;;4979154;28;20049;-66
2023/12/19 01:39:21;;;;;;;32.63;16.77;;;;;;;;;;4984321;28;20061;-67
2023/12/19 01:41:47;;;;;;;33.10;16.88;;;;;;;;;;4987037;28;20440;-66
2023/12/19 01:44:19;;;;;;;31.92;17.20;;;;;;;;;;4980560;28;20084;-67
2023/12/19 01:46:46;;;;;;;31.40;17.45;;;;;;;;;;4967003;28;20051;-67
2023/12/19 01:49:12;;;;;;;35.03;18.23;;;;;;;;;;4967473;28;20035;-67
2023/12/19 01:51:38;;;;;;;36.65;17.75;;;;;;;;;;4971618;28;20042;-66
2023/12/19 01:54:06;;;;;;;34.40;17.45;;;;;;;;;;4972097;28;20050;-66
2023/12/19 01:56:32;;;;;;;36.75;17.92;;;;;;;;;;4981298;28;20043;-66
2023/12/19 01:58:59;;;;;;;38.35;18.38;;;;;;;;;;4978212;28;20532;-66
2023/12/19 02:01:26;;;;;;;35.92;18.17;;;;;;;;;;4982323;28;20034;-66
2023/12/19 02:03:52;;;;;;;37.80;18.85;;;;;;;;;;4986664;28;20038;-66
2023/12/19 02:06:19;;;;;;;35.22;17.60;;;;;;;;;;4982732;28;20049;-66
2023/12/19 02:08:45;;;;;;;42.30;19.08;;;;;;;;;;4984568;28;20077;-67
2023/12/19 02:11:11;;;;;;;34.55;18.77;;;;;;;;;;4984083;28;20038;-67
2023/12/19 02:13:38;;;;;;;37.90;18.25;;;;;;;;;;4985754;28;20675;-67
2023/12/19 02:16:04;;;;;;;36.88;18.48;;;;;;;;;;4977582;28;20101;-66
2023/12/19 02:18:30;;;;;;;37.92;19.17;;;;;;;;;;4986484;28;20042;-67
2023/12/19 02:20:56;;;;;;;39.88;18.63;;;;;;;;;;4986600;28;20105;-66
2023/12/19 02:23:22;;;;;;;36.65;18.02;;;;;;;;;;4985502;28;20537;-66
2023/12/19 02:25:49;;;;;;;36.58;19.25;;;;;;;;;;4988672;28;20048;-67
2023/12/19 02:28:15;;;;;;;39.05;18.52;;;;;;;;;;4983943;28;20030;-66
2023/12/19 02:30:41;;;;;;;40.67;19.42;;;;;;;;;;4965770;28;20046;-66
2023/12/19 02:33:07;;;;;;;40.03;19.48;;;;;;;;;;4981001;28;20243;-67
2023/12/19 02:35:33;;;;;;;38.47;19.42;;;;;;;;;;4982163;28;20066;-67
2023/12/19 02:37:59;;;;;;;42.00;19.48;;;;;;;;;;4984236;28;20038;-67
2023/12/19 02:40:25;;;;;;;41.95;19.63;;;;;;;;;;4982667;28;20034;-67
2023/12/19 02:42:51;;;;;;;39.08;18.98;;;;;;;;;;4971047;28;20034;-67
2023/12/19 02:45:17;;;;;;;43.53;20.17;;;;;;;;;;4976540;28;20042;-67
2023/12/19 02:47:43;;;;;;;45.08;20.23;;;;;;;;;;4979613;28;20125;-67
2023/12/19 02:50:09;;;;;;;40.15;19.23;;;;;;;;;;4980798;28;20621;-67
2023/12/19 02:52:35;;;;;;;38.03;18.75;;;;;;;;;;4981733;28;20175;-67
2023/12/19 02:55:01;;;;;;;45.50;20.08;;;;;;;;;;4981742;28;20038;-67
2023/12/19 02:57:27;;;;;;;43.60;19.23;;;;;;;;;;4980767;28;20049;-67
2023/12/19 02:59:53;;;;;;;45.50;20.63;;;;;;;;;;4981686;28;20804;-67
2023/12/19 03:02:19;;;;;;;41.75;19.83;;;;;;;;;;4980574;28;20038;-67
2023/12/19 03:04:45;;;;;;;47.45;20.25;;;;;;;;;;4980337;28;20042;-68
2023/12/19 03:07:11;;;;;;;44.42;19.60;;;;;;;;;;4976940;28;20398;-67
2023/12/19 03:09:37;;;;;;;45.83;21.20;;;;;;;;;;4996239;28;20097;-67
2023/12/19 03:12:05;;;;;;;41.42;19.98;;;;;;;;;;4980155;28;20054;-67
2023/12/19 03:14:31;;;;;;;47.50;20.77;;;;;;;;;;4979376;28;20543;-67
2023/12/19 03:16:57;;;;;;;46.97;20.10;;;;;;;;;;4980139;28;20041;-67
2023/12/19 03:19:23;;;;;;;49.40;20.95;;;;;;;;;;4979270;28;20042;-67
2023/12/19 03:21:49;;;;;;;47.35;20.75;;;;;;;;;;4981103;28;20403;-67
2023/12/19 03:24:15;;;;;;;44.00;20.90;;;;;;;;;;4980138;28;20105;-67
2023/12/19 03:26:41;;;;;;;45.72;20.80;;;;;;;;;;4984185;28;20494;-67
2023/12/19 03:29:07;;;;;;;43.83;20.63;;;;;;;;;;4980083;28;20033;-67
2023/12/19 03:31:33;;;;;;;42.78;20.20;;;;;;;;;;4994898;28;20421;-67
2023/12/19 03:34:02;;;;;;;43.05;19.48;;;;;;;;;;4979086;28;20389;-66
2023/12/19 03:36:29;;;;;;;44.22;20.13;;;;;;;;;;4960297;28;20952;-67
2023/12/19 03:38:54;;;;;;;40.03;18.58;;;;;;;;;;4975307;28;20030;-67
2023/12/19 03:41:20;;;;;;;42.40;18.77;;;;;;;;;;4980757;28;20041;-67
2023/12/19 03:43:46;;;;;;;43.05;19.60;;;;;;;;;;4979741;28;20041;-67
2023/12/19 03:46:14;;;;;;;35.50;17.38;;;;;;;;;;4982471;28;20030;-66
2023/12/19 03:48:40;;;;;;;38.53;18.92;;;;;;;;;;4974287;28;20053;-66
2023/12/19 03:51:07;;;;;;;38.35;19.02;;;;;;;;;;4979757;28;20035;-66
2023/12/19 03:53:33;;;;;;;40.80;19.58;;;;;;;;;;4983140;28;20085;-66
2023/12/19 03:55:59;;;;;;;37.58;17.70;;;;;;;;;;4980941;28;20482;-67
2023/12/19 03:58:25;;;;;;;39.13;17.73;;;;;;;;;;4980139;28;20557;-66
2023/12/19 04:00:51;;;;;;;36.97;18.17;;;;;;;;;;4980824;28;20035;-66
2023/12/19 04:03:17;;;;;;;39.13;19.20;;;;;;;;;;4987474;28;20034;-66
2023/12/19 04:05:43;;;;;;;38.65;18.63;;;;;;;;;;4985923;28;20049;-66
2023/12/19 04:08:09;;;;;;;35.58;17.40;;;;;;;;;;4970197;28;20117;-66
2023/12/19 04:10:35;;;;;;;35.58;17.65;;;;;;;;;;4962076;28;20023;-66
2023/12/19 04:13:01;;;;;;;35.25;16.52;;;;;;;;;;4966060;28;20121;-66
2023/12/19 04:15:27;;;;;;;36.85;18.13;;;;;;;;;;4988748;28;20172;-67
2023/12/19 04:17:53;;;;;;;33.78;16.58;;;;;;;;;;4980494;28;20137;-66
2023/12/19 04:20:19;;;;;;;30.85;15.70;;;;;;;;;;4981760;28;20030;-66
2023/12/19 04:22:45;;;;;;;32.28;16.05;;;;;;;;;;4988135;28;20533;-66
2023/12/19 04:25:11;;;;;;;28.02;15.18;;;;;;;;;;4979311;28;20453;-66
2023/12/19 04:27:37;;;;;;;28.50;14.75;;;;;;;;;;4979494;28;20030;-66
2023/12/19 04:30:03;;;;;;;30.40;15.30;;;;;;;;;;4982626;28;20042;-66
2023/12/19 04:32:29;;;;;;;29.48;15.45;;;;;;;;;;4975448;28;21912;-66
2023/12/19 04:34:55;;;;;;;30.08;13.88;;;;;;;;;;4978878;28;20506;-66
2023/12/19 04:37:21;;;;;;;25.88;13.38;;;;;;;;;;4984063;28;20504;-66
2023/12/19 04:39:47;;;;;;;24.98;13.30;;;;;;;;;;4985056;28;20080;-66
2023/12/19 04:42:17;;;;;;;26.75;14.50;;;;;;;;;;4982423;28;20124;-66
2023/12/19 04:44:44;;;;;;;27.42;14.25;;;;;;;;;;4980631;28;20034;-66
2023/12/19 04:47:10;;;;;;;32.63;14.85;;;;;;;;;;4984374;28;20050;-66
2023/12/19 04:49:36;;;;;;;29.02;14.40;;;;;;;;;;4986164;28;20096;-66
2023/12/19 04:52:02;;;;;;;29.63;15.23;;;;;;;;;;4988157;28;20142;-66
2023/12/19 04:54:28;;;;;;;30.80;15.73;;;;;;;;;;4982451;28;20040;-67
2023/12/19 04:56:54;;;;;;;28.75;15.13;;;;;;;;;;4984429;28;20034;-66
2023/12/19 04:59:20;;;;;;;30.63;15.68;;;;;;;;;;4983840;28;22366;-66
2023/12/19 05:01:46;;;;;;;33.70;16.88;;;;;;;;;;4982507;28;20057;-67
2023/12/19 05:04:12;;;;;;;32.65;16.60;;;;;;;;;;4981269;28;20180;-66
2023/12/19 05:06:38;;;;;;;35.42;17.35;;;;;;;;;;4983863;28;20042;-67
2023/12/19 05:09:04;;;;;;;32.70;16.88;;;;;;;;;;4987297;28;20104;-67
2023/12/19 05:11:30;;;;;;;34.47;17.45;;;;;;;;;;4981577;28;20048;-66
2023/12/19 05:13:56;;;;;;;33.95;18.00;;;;;;;;;;4986113;28;20476;-66
2023/12/19 05:16:22;;;;;;;35.05;17.42;;;;;;;;;;4980021;28;20046;-66
2023/12/19 05:18:48;;;;;;;34.95;16.98;;;;;;;;;;4983155;28;20038;-66
2023/12/19 05:21:14;;;;;;;35.33;18.02;;;;;;;;;;4989125;28;20093;-66
2023/12/19 05:23:40;;;;;;;38.42;18.15;;;;;;;;;;4972122;28;20680;-66
2023/12/19 05:26:07;;;;;;;33.97;17.45;;;;;;;;;;4984537;28;20031;-66
2023/12/19 05:28:35;;;;;;;32.90;17.95;;;;;;;;;;4974898;28;20137;-67
2023/12/19 05:31:02;;;;;;;32.55;17.65;;;;;;;;;;4983645;28;20038;-67
2023/12/19 05:33:28;;;;;;;32.88;17.33;;;;;;;;;;4980982;28;20049;-66
2023/12/19 05:35:54;;;;;;;30.52;17.77;;;;;;;;;;4982249;28;20695;-66
2023/12/19 05:38:21;;;;;;;33.15;18.90;;;;;;;;;;4981898;28;26439;-67
2023/12/19 05:40:47;;;;;;;31.33;17.38;;;;;;;;;;4988522;28;20046;-66
2023/12/19 05:43:14;;;;;;;34.53;18.45;;;;;;;;;;4986635;28;20034;-66
2023/12/19 05:45:39;;;;;;;33.80;18.33;;;;;;;;;;4969472;28;20038;-66
2023/12/19 05:48:06;;;;;;;31.48;17.85;;;;;;;;;;4974199;28;20462;-66
2023/12/19 05:50:32;;;;;;;33.30;18.42;;;;;;;;;;4974717;28;20058;-67
2023/12/19 05:52:57;;;;;;;31.63;17.77;;;;;;;;;;4966039;28;20405;-66
2023/12/19 05:55:23;;;;;;;32.53;16.85;;;;;;;;;;4961291;28;20108;-67
2023/12/19 05:57:50;;;;;;;30.77;17.45;;;;;;;;;;4978453;28;20038;-66
2023/12/19 06:00:17;;;;;;;30.98;17.38;;;;;;;;;;4981507;28;20043;-66
2023/12/19 06:02:43;;;;;;;30.73;17.45;;;;;;;;;;4980614;28;20837;-66
2023/12/19 06:05:09;;;;;;;34.20;18.38;;;;;;;;;;4982200;28;20034;-67
2023/12/19 06:07:37;;;;;;;31.48;18.48;;;;;;;;;;4986381;28;20722;-67
2023/12/19 06:10:03;;;;;;;34.92;17.27;;;;;;;;;;4983622;28;20624;-67
2023/12/19 06:12:31;;;;;;;30.88;18.15;;;;;;;;;;4983349;28;20046;-67
2023/12/19 06:14:57;;;;;;;32.22;18.20;;;;;;;;;;4981305;28;20042;-66
2023/12/19 06:17:23;;;;;;;31.52;17.20;;;;;;;;;;4983166;28;20049;-66
2023/12/19 06:19:49;;;;;;;29.90;17.60;;;;;;;;;;4982173;28;20034;-66
2023/12/19 06:22:15;;;;;;;32.70;17.45;;;;;;;;;;4987786;28;20506;-67
2023/12/19 06:24:41;;;;;;;30.55;18.70;;;;;;;;;;4988369;28;20833;-66
2023/12/19 06:27:06;;;;;;;32.33;18.08;;;;;;;;;;4983397;28;20146;-66
2023/12/19 06:29:32;;;;;;;33.80;19.10;;;;;;;;;;4984567;28;20043;-67
2023/12/19 06:31:58;;;;;;;33.97;19.13;;;;;;;;;;4983118;28;20046;-66
2023/12/19 06:34:27;;;;;;;34.88;19.45;;;;;;;;;;4970944;28;20027;-67
2023/12/19 06:36:53;;;;;;;32.95;19.30;;;;;;;;;;4981690;28;20058;-67
2023/12/19 06:39:19;;;;;;;34.58;18.88;;;;;;;;;;4977063;28;20069;-66
2023/12/19 06:41:45;;;;;;;34.67;19.75;;;;;;;;;;4988386;28;20042;-67
2023/12/19 06:44:12;;;;;;;33.78;19.58;;;;;;;;;;4983295;28;20038;-67
2023/12/19 06:46:38;;;;;;;34.03;19.70;;;;;;;;;;4987446;28;20049;-67
2023/12/19 06:49:04;;;;;;;34.00;19.13;;;;;;;;;;4991863;28;20038;-67
2023/12/19 06:51:31;;;;;;;35.58;19.40;;;;;;;;;;4983767;28;20068;-67
2023/12/19 06:53:57;;;;;;;34.30;21.25;;;;;;;;;;4986206;28;20144;-66
2023/12/19 06:56:27;;;;;;;35.17;20.30;;;;;;;;;;4982983;28;20041;-66
2023/12/19 06:58:53;;;;;;;34.45;20.48;;;;;;;;;;4983872;28;20651;-67
2023/12/19 07:01:19;;;;;;;37.70;20.27;;;;;;;;;;4983304;28;20675;-67
2023/12/19 07:03:45;;;;;;;32.70;19.42;;;;;;;;;;4983397;28;20106;-67
2023/12/19 07:06:14;;;;;;;34.38;19.85;;;;;;;;;;4979153;28;20128;-67
2023/12/19 07:08:41;;;;;;;33.15;19.50;;;;;;;;;;4988811;28;20433;-67
2023/12/19 07:11:07;;;;;;;41.13;19.42;;;;;;;;;;4983437;28;20037;-67
2023/12/19 07:13:33;;;;;;;32.92;18.58;;;;;;;;;;4986792;28;20251;-67
2023/12/19 07:15:59;;;;;;;37.58;20.42;;;;;;;;;;4983353;28;20039;-66
2023/12/19 07:18:25;;;;;;;33.08;20.20;;;;;;;;;;4981565;28;20038;-67
2023/12/19 07:20:51;;;;;;;37.75;20.10;;;;;;;;;;4980301;28;20418;-67
2023/12/19 07:23:17;;;;;;;34.25;19.50;;;;;;;;;;4982312;28;20445;-67
2023/12/19 07:25:43;;;;;;;33.45;20.08;;;;;;;;;;4985075;28;20636;-67
2023/12/19 07:28:09;;;;;;;34.92;20.48;;;;;;;;;;4988007;28;20091;-67
2023/12/19 07:30:35;;;;;;;37.83;20.10;;;;;;;;;;4981032;28;20046;-67
2023/12/19 07:33:01;;;;;;;33.10;18.98;;;;;;;;;;4979803;28;20194;-67
2023/12/19 07:35:27;;;;;;;32.50;19.23;;;;;;;;;;4980442;28;20039;-67
2023/12/19 07:37:53;;;;;;;28.08;17.55;;;;;;;;;;4980928;28;20046;-67
2023/12/19 07:40:18;;;;;;;35.08;18.50;;;;;;;;;;4982128;28;20485;-67
2023/12/19 07:42:44;;;;;;;32.00;17.70;;;;;;;;;;4982618;28;20853;-67
2023/12/19 07:45:13;;;;;;;34.72;18.75;;;;;;;;;;4976942;28;20483;-67
2023/12/19 07:47:40;;;;;;;31.80;18.52;;;;;;;;;;4979125;28;20053;-67
2023/12/19 07:50:07;;;;;;;28.50;18.08;;;;;;;;;;4977039;28;20163;-67
2023/12/19 07:52:33;;;;;;;31.58;18.42;;;;;;;;;;4979077;28;20435;-67
2023/12/19 07:54:59;;;;;;;29.88;17.10;;;;;;;;;;4979710;28;20117;-69
2023/12/19 07:57:25;;;;;;;30.05;16.30;;;;;;;;;;4979940;28;20666;-67
2023/12/19 07:59:51;;;;;;;31.52;17.33;;;;;;;;;;4985108;28;20285;-67
2023/12/19 08:02:17;;;;;;;29.25;16.20;;;;;;;;;;4979320;28;20216;-67
2023/12/19 08:04:43;;;;;;;31.13;16.17;;;;;;;;;;4982824;28;20022;-67
2023/12/19 08:07:10;;;;;;;31.67;16.55;;;;;;;;;;4979064;28;20038;-67
2023/12/19 08:09:35;;;;;;;27.35;16.13;;;;;;;;;;4983323;28;20034;-67
2023/12/19 08:12:02;;;;;;;30.88;16.48;;;;;;;;;;4979516;28;20092;-68
2023/12/19 08:14:28;;;;;;;33.83;17.10;;;;;;;;;;4982992;28;20057;-67
2023/12/19 08:16:54;;;;;;;26.63;15.63;;;;;;;;;;4985000;28;20038;-68
2023/12/19 08:19:20;;;;;;;23.58;15.15;;;;;;;;;;4975204;28;20148;-68
2023/12/19 08:21:50;;;;;;;27.10;15.50;;;;;;;;;;4974674;28;20141;-67
2023/12/19 08:24:16;;;;;;;32.35;15.73;;;;;;;;;;4977328;28;20034;-69
2023/12/19 08:26:46;;;;;;;29.60;15.90;;;;;;;;;;4982592;28;20038;-70
2023/12/19 08:29:12;;;;;;;28.35;15.50;;;;;;;;;;4980994;28;20031;-69
2023/12/19 08:31:38;;;;;;;31.48;14.82;;;;;;;;;;4976286;28;20192;-69
2023/12/19 08:34:04;;;;;;;32.53;15.52;;;;;;;;;;4980586;28;20049;-69
2023/12/19 08:36:30;;;;;;;30.67;15.43;;;;;;;;;;4979516;28;20141;-69
2023/12/19 08:38:56;;;;;;;33.35;16.27;;;;;;;;;;4978843;28;20141;-70
2023/12/19 08:41:22;;;;;;;29.38;15.27;;;;;;;;;;4972229;28;20765;-69
2023/12/19 08:43:48;;;;;;;30.30;15.00;;;;;;;;;;4972818;28;20044;-69
2023/12/19 08:46:17;;;;;;;23.85;13.50;;;;;;;;;;4982385;28;20026;-69
2023/12/19 08:48:43;;;;;;;28.23;14.95;;;;;;;;;;4972245;28;20133;-69
2023/12/19 08:51:10;;;;;;;34.40;15.02;;;;;;;;;;4978690;28;20519;-69
2023/12/19 08:53:36;;;;;;;22.88;14.00;;;;;;;;;;4982976;28;20046;-69
2023/12/19 08:56:02;;;;;;;29.23;14.55;;;;;;;;;;4985140;28;20035;-66
2023/12/19 08:58:28;;;;;;;26.70;14.05;;;;;;;;;;4978752;28;20034;-67
2023/12/19 09:00:55;;;;;;;26.63;14.30;;;;;;;;;;4985231;28;20370;-67
2023/12/19 09:03:21;;;;;;;27.40;14.27;;;;;;;;;;4980596;28;20046;-67
2023/12/19 09:05:47;;;;;;;25.17;13.82;;;;;;;;;;4971498;28;20673;-67
2023/12/19 09:08:13;;;;;;;26.60;13.35;;;;;;;;;;4969998;28;20030;-67
2023/12/19 09:10:39;;;;;;;29.98;13.77;;;;;;;;;;4972223;28;20050;-67
2023/12/19 09:13:05;;;;;;;25.48;13.20;;;;;;;;;;4982428;28;20053;-67
2023/12/19 09:15:31;;;;;;;20.88;12.23;;;;;;;;;;4979629;28;20057;-67
2023/12/19 09:17:57;;;;;;;23.95;12.32;;;;;;;;;;4977127;28;20181;-67
2023/12/19 09:20:24;;;;;;;19.08;12.02;;;;;;;;;;4980112;28;20071;-67
2023/12/19 09:22:50;;;;;;;23.73;11.88;;;;;;;;;;4981201;28;20030;-66
2023/12/19 09:25:17;;;;;;;18.20;11.05;;;;;;;;;;4976176;28;20104;-67
2023/12/19 09:27:43;;;;;;;23.20;11.90;;;;;;;;;;4983588;28;20038;-67
2023/12/19 09:30:10;;;;;;;20.73;11.05;;;;;;;;;;4980794;28;20742;-67
2023/12/19 09:32:39;;;;;;;22.27;11.07;;;;;;;;;;4980561;28;20054;-68
2023/12/19 09:35:08;;;;;;;22.75;11.48;;;;;;;;;;4980788;28;20167;-68
2023/12/19 09:37:34;;;;;;;21.02;11.05;;;;;;;;;;4977795;28;20057;-67
2023/12/19 09:40:01;;;;;;;20.23;9.55;;;;;;;;;;4980379;28;20478;-69
2023/12/19 09:42:27;;;;;;;21.10;10.13;;;;;;;;;;4982134;28;20065;-67
2023/12/19 09:44:53;;;;;;;23.17;10.73;;;;;;;;;;4981513;28;20050;-69
2023/12/19 09:47:23;;;;;;;22.20;10.50;;;;;;;;;;4981072;28;20050;-70
2023/12/19 09:49:51;;;;;;;19.50;9.98;;;;;;;;;;4980653;28;20676;-70
2023/12/19 09:52:17;;;;;;;20.20;9.93;;;;;;;;;;4978257;28;20038;-70
2023/12/19 09:54:43;;;;;;;20.30;9.90;;;;;;;;;;4982301;28;20043;-70
2023/12/19 09:57:12;;;;;;;21.42;9.82;;;;;;;;;;4981851;28;20085;-70
2023/12/19 09:59:39;;;;;;;21.63;9.55;;;;;;;;;;4979472;28;20031;-69
2023/12/19 10:02:05;;;;;;;19.13;9.65;;;;;;;;;;4981385;28;20109;-71
2023/12/19 10:04:30;;;;;;;17.00;10.05;;;;;;;;;;4982555;28;20043;-69
2023/12/19 10:07:00;;;;;;;25.20;10.95;;;;;;;;;;4981140;28;20113;-69
2023/12/19 10:09:26;;;;;;;20.83;11.00;;;;;;;;;;4993630;28;20038;-68
2023/12/19 10:12:09;;;;;;;20.70;10.93;;;;;;;;;;4985688;28;20031;-68
2023/12/19 10:14:36;;;;;;;22.75;11.30;;;;;;;;;;4970108;28;20049;-68
2023/12/19 10:17:04;;;;;;;19.08;11.23;;;;;;;;;;4991083;28;20041;-68
2023/12/19 10:19:30;;;;;;;22.00;10.75;;;;;;;;;;4983289;28;20039;-67
2023/12/19 10:22:09;;;;;;;19.23;11.23;;;;;;;;;;4986377;28;20893;-68
2023/12/19 10:24:35;;;;;;;28.10;11.88;;;;;;;;;;4988478;28;20038;-68
2023/12/19 10:27:03;;;;;;;26.38;11.73;;;;;;;;;;5000682;28;20096;-68
2023/12/19 10:29:36;;;;;;;29.65;13.75;;;;;;;;;;4979918;28;21107;-67
2023/12/19 10:32:12;;;;;;;23.42;11.15;;;;;;;;;;4964139;28;20495;-68
2023/12/19 10:34:38;;;;;;;25.02;11.95;;;;;;;;;;4962347;28;20247;-67
2023/12/19 10:37:17;;;;;;;21.90;11.07;;;;;;;;;;4963829;28;20469;-68
2023/12/19 10:39:44;;;;;;;18.55;11.65;;;;;;;;;;4979632;28;20034;-67
2023/12/19 10:42:10;;;;;;;18.48;10.45;;;;;;;;;;4978220;28;20044;-67
2023/12/19 10:44:39;;;;;;;22.02;10.60;;;;;;;;;;4980927;28;20093;-68
2023/12/19 10:47:06;;;;;;;20.58;11.27;;;;;;;;;;4979338;28;20065;-68
2023/12/19 10:49:32;;;;;;;19.98;10.68;;;;;;;;;;4980928;28;20042;-68
2023/12/19 10:52:04;;;;;;;22.98;11.05;;;;;;;;;;4984613;28;20081;-67
2023/12/19 10:54:30;;;;;;;20.25;11.18;;;;;;;;;;4986491;28;20027;-68
2023/12/19 10:57:15;;;;;;;19.88;10.52;;;;;;;;;;4987095;28;20036;-67
2023/12/19 10:59:47;;;;;;;23.08;10.80;;;;;;;;;;4985273;28;20852;-68
2023/12/19 11:02:17;;;;;;;21.60;11.30;;;;;;;;;;4983096;28;20165;-68
2023/12/19 11:04:50;;;;;;;17.55;10.70;;;;;;;;;;4980832;28;20488;-70
2023/12/19 11:07:17;;;;;;;19.95;10.48;;;;;;;;;;4986899;28;20505;-70
2023/12/19 11:09:47;;;;;;;19.70;9.98;;;;;;;;;;4980224;28;20533;-70
2023/12/19 11:12:13;;;;;;;17.63;10.73;;;;;;;;;;4976916;28;20065;-69
2023/12/19 11:14:41;;;;;;;18.40;10.32;;;;;;;;;;4984817;28;20045;-70
2023/12/19 11:17:14;;;;;;;20.05;10.85;;;;;;;;;;4981935;28;20532;-70
2023/12/19 11:19:49;;;;;;;18.15;10.57;;;;;;;;;;4980683;28;20075;-70
2023/12/19 11:22:19;;;;;;;18.80;10.82;;;;;;;;;;4979589;28;20340;-70
2023/12/19 11:25:01;;;;;;;22.10;10.57;;;;;;;;;;4979328;28;20478;-70
2023/12/19 11:27:31;;;;;;;22.08;10.75;;;;;;;;;;4981221;28;20034;-70
2023/12/19 11:29:58;;;;;;;21.00;10.68;;;;;;;;;;4979919;28;20060;-71
2023/12/19 11:32:29;;;;;;;22.38;11.55;;;;;;;;;;4977387;28;20070;-70
2023/12/19 11:35:06;;;;;;;23.30;11.18;;;;;;;;;;4985524;28;20034;-67
2023/12/19 11:37:33;;;;;;;19.58;11.63;;;;;;;;;;4959506;28;20057;-67
2023/12/19 11:39:59;;;;;;;23.38;10.95;;;;;;;;;;4960750;28;20046;-67
2023/12/19 11:42:40;;;;;;;20.75;11.48;;;;;;;;;;4982382;28;20364;-67
2023/12/19 11:45:18;;;;;;;20.25;11.13;;;;;;;;;;4980346;28;20129;-68
2023/12/19 11:47:44;;;;;;;19.38;10.60;;;;;;;;;;4972150;28;20108;-67
2023/12/19 11:50:10;;;;;;;19.52;11.20;;;;;;;;;;4961796;28;20043;-67
2023/12/19 11:52:36;;;;;;;19.38;11.30;;;;;;;;;;4974175;28;20477;-67
2023/12/19 11:55:03;;;;;;;18.80;10.50;;;;;;;;;;4980365;28;20042;-67
2023/12/19 11:57:30;;;;;;;19.25;10.88;;;;;;;;;;4963979;28;20053;-67
2023/12/19 11:59:56;;;;;;;19.67;11.13;;;;;;;;;;4969909;28;20045;-68
2023/12/19 12:02:37;;;;;;;19.48;10.55;;;;;;;;;;4964192;28;20126;-67
2023/12/19 12:05:13;;;;;;;19.55;10.45;;;;;;;;;;4976061;28;20504;-67
2023/12/19 12:07:47;;;;;;;18.77;10.85;;;;;;;;;;4982489;28;20605;-67
2023/12/19 12:10:14;;;;;;;25.02;11.57;;;;;;;;;;4977619;28;20142;-67
2023/12/19 12:12:40;;;;;;;19.40;11.40;;;;;;;;;;4982261;28;20094;-67
2023/12/19 12:15:09;;;;;;;20.05;11.65;;;;;;;;;;4979427;28;20037;-68
2023/12/19 12:17:36;;;;;;;19.52;11.20;;;;;;;;;;4986650;28;20039;-68
2023/12/19 12:20:03;;;;;;;19.33;11.57;;;;;;;;;;4981479;28;20062;-67
2023/12/19 12:22:29;;;;;;;21.15;11.55;;;;;;;;;;4983483;28;20038;-67
2023/12/19 12:24:55;;;;;;;23.83;12.02;;;;;;;;;;4982989;28;20117;-68
2023/12/19 12:27:21;;;;;;;20.73;11.82;;;;;;;;;;4981263;28;20046;-67
2023/12/19 12:29:47;;;;;;;20.55;12.18;;;;;;;;;;4982966;28;20050;-66
2023/12/19 12:32:14;;;;;;;21.17;12.52;;;;;;;;;;4980392;28;20093;-67
2023/12/19 12:34:40;;;;;;;20.98;12.60;;;;;;;;;;4980261;28;20066;-69
2023/12/19 12:37:05;;;;;;;21.38;12.68;;;;;;;;;;4982543;28;20031;-70
2023/12/19 12:39:32;;;;;;;23.98;13.55;;;;;;;;;;4980179;28;20030;-70
2023/12/19 12:42:04;;;;;;;25.05;13.88;;;;;;;;;;4982161;28;20497;-70
2023/12/19 12:44:30;;;;;;;26.20;13.47;;;;;;;;;;4982568;28;20663;-67
2023/12/19 12:46:57;;;;;;;22.88;13.57;;;;;;;;;;4980144;28;20426;-68
2023/12/19 12:49:23;;;;;;;25.65;13.25;;;;;;;;;;4977382;28;20055;-68
2023/12/19 12:51:55;;;;;;;26.90;13.00;;;;;;;;;;4963472;28;20042;-68
2023/12/19 12:54:21;;;;;;;25.73;13.77;;;;;;;;;;4977896;28;20514;-67
2023/12/19 12:56:47;;;;;;;28.67;13.68;;;;;;;;;;4982151;28;20062;-68
2023/12/19 12:59:14;;;;;;;23.30;12.63;;;;;;;;;;4981878;28;20034;-67
2023/12/19 13:01:41;;;;;;;29.02;14.43;;;;;;;;;;4978680;28;20031;-68
2023/12/19 13:04:07;;;;;;;23.75;13.85;;;;;;;;;;4979542;28;20065;-67
2023/12/19 13:06:35;;;;;;;27.92;13.43;;;;;;;;;;4983087;28;20049;-67
2023/12/19 13:09:01;;;;;;;24.52;13.02;;;;;;;;;;4981843;28;20484;-68
2023/12/19 13:11:27;;;;;;;26.40;14.05;;;;;;;;;;4984058;28;20494;-67
2023/12/19 13:13:53;;;;;;;22.65;13.07;;;;;;;;;;4984085;28;20038;-67
2023/12/19 13:16:19;;;;;;;28.23;13.55;;;;;;;;;;4982491;28;20041;-67
2023/12/19 13:18:47;;;;;;;21.35;13.68;;;;;;;;;;4979784;28;20031;-68
2023/12/19 13:21:13;;;;;;;24.95;13.65;;;;;;;;;;4971931;28;20452;-68
2023/12/19 13:23:43;;;;;;;29.70;13.80;;;;;;;;;;4979871;28;20066;-66
2023/12/19 13:26:09;;;;;;;24.10;13.50;;;;;;;;;;4983456;28;20038;-67
2023/12/19 13:28:36;;;;;;;23.88;12.80;;;;;;;;;;4982959;28;20034;-67
2023/12/19 13:31:03;;;;;;;23.00;12.55;;;;;;;;;;4981477;28;20038;-67
2023/12/19 13:33:29;;;;;;;29.73;13.40;;;;;;;;;;4982208;28;20121;-67
2023/12/19 13:35:55;;;;;;;30.65;13.13;;;;;;;;;;4985160;28;20475;-67
2023/12/19 13:38:22;;;;;;;24.42;12.95;;;;;;;;;;4981183;28;20164;-67
2023/12/19 13:40:48;;;;;;;24.42;13.15;;;;;;;;;;4982469;28;20046;-67
2023/12/19 13:43:14;;;;;;;28.23;13.35;;;;;;;;;;4981442;28;20026;-67
2023/12/19 13:45:40;;;;;;;28.98;13.35;;;;;;;;;;4996526;28;20039;-67
2023/12/19 13:48:06;;;;;;;29.42;14.80;;;;;;;;;;4983665;28;20403;-67
2023/12/19 13:50:33;;;;;;;24.75;14.05;;;;;;;;;;4981579;28;20132;-67
2023/12/19 13:53:00;;;;;;;26.77;13.68;;;;;;;;;;4982124;28;20034;-67
2023/12/19 13:55:26;;;;;;;29.77;14.32;;;;;;;;;;4982292;28;20498;-67
2023/12/19 13:57:52;;;;;;;23.80;13.73;;;;;;;;;;4983116;28;20069;-67
2023/12/19 14:00:18;;;;;;;26.92;13.45;;;;;;;;;;4986871;28;20738;-67
2023/12/19 14:02:45;;;;;;;24.83;12.82;;;;;;;;;;4983546;28;20038;-66
2023/12/19 14:05:14;;;;;;;28.73;13.07;;;;;;;;;;4983283;28;20045;-67
2023/12/19 14:07:40;;;;;;;25.85;13.23;;;;;;;;;;4984938;28;20069;-69
2023/12/19 14:10:07;;;;;;;25.90;13.38;;;;;;;;;;4982155;28;20057;-69
2023/12/19 14:12:39;;;;;;;25.00;13.68;;;;;;;;;;4996102;28;20047;-68
2023/12/19 14:15:07;;;;;;;29.52;14.02;;;;;;;;;;4981086;28;20042;-68